Time;durP1;ratioP1;P1;durP2;ratioP2;P2;SDS_P1;SDS_P2;PMS_P1;PMS_P2;Temp;Humidity;BMP_temperature;BMP_pressure;BME280_temperature;BME280_humidity;BME280_pressure;Samples;Min_cycle;Max_cycle;Signal;HPM_P1;HPM_P2
2023/07/10 04:00:47;;;;;;;2.90;2.30;;;26.70;62.30;;;;;;6054849;23;20375;31
2023/07/10 04:03:13;;;;;;;3.50;2.10;;;26.60;62.70;;;;;;4954174;29;20470;-76
2023/07/10 04:05:42;;;;;;;3.30;2.30;;;26.60;62.70;;;;;;4955510;29;20483;-76
2023/07/10 04:08:08;;;;;;;3.33;2.67;;;26.60;62.90;;;;;;4955269;29;20511;-77
2023/07/10 04:10:36;;;;;;;5.00;2.70;;;26.70;62.80;;;;;;4957307;28;20538;-77
2023/07/10 04:13:02;;;;;;;3.03;2.60;;;26.70;63.00;;;;;;4975554;28;20862;-76
2023/07/10 04:15:29;;;;;;;3.60;2.13;;;26.70;63.00;;;;;;4975817;28;20512;-76
2023/07/10 04:17:57;;;;;;;2.73;2.30;;;26.70;62.90;;;;;;4974706;28;20453;-76
2023/07/10 04:20:23;;;;;;;3.27;2.50;;;26.70;62.90;;;;;;4974579;28;20554;-76
2023/07/10 04:22:50;;;;;;;3.03;2.23;;;26.60;62.80;;;;;;4974633;28;20583;-76
2023/07/10 04:25:17;;;;;;;3.90;3.10;;;26.50;63.10;;;;;;4974513;28;20493;-76
2023/07/10 04:27:43;;;;;;;3.20;2.47;;;26.60;63.00;;;;;;4974320;28;20458;-76
2023/07/10 04:30:12;;;;;;;3.10;2.60;;;26.60;63.00;;;;;;4974549;28;20453;-76
2023/07/10 04:32:38;;;;;;;3.33;1.90;;;26.60;63.10;;;;;;4974348;28;20469;-76
2023/07/10 04:35:07;;;;;;;2.97;2.40;;;26.70;63.10;;;;;;4975155;28;20446;-76
2023/07/10 04:37:34;;;;;;;2.50;2.13;;;26.70;63.10;;;;;;4979277;28;20446;-74
2023/07/10 04:40:01;;;;;;;2.90;2.50;;;26.80;63.00;;;;;;4987331;28;20447;-74
2023/07/10 04:42:27;;;;;;;3.33;2.80;;;26.80;63.00;;;;;;4989883;28;20471;-74
2023/07/10 04:44:54;;;;;;;4.00;2.50;;;26.80;62.70;;;;;;4975267;28;21066;-75
2023/07/10 04:47:21;;;;;;;3.50;2.40;;;26.90;63.00;;;;;;4974335;28;20449;-75
2023/07/10 04:49:47;;;;;;;3.50;2.87;;;26.90;62.60;;;;;;4974422;28;20446;-74
2023/07/10 04:52:15;;;;;;;3.37;2.60;;;26.80;62.90;;;;;;4973698;28;20509;-75
2023/07/10 04:54:42;;;;;;;2.80;2.13;;;26.80;63.10;;;;;;4974200;28;20493;-74
2023/07/10 04:57:08;;;;;;;3.27;2.60;;;26.70;63.40;;;;;;4974237;28;20485;-74
2023/07/10 04:59:35;;;;;;;2.73;2.50;;;26.70;63.30;;;;;;4974209;28;20861;-75
2023/07/10 05:02:02;;;;;;;3.70;2.60;;;26.60;63.70;;;;;;4973496;28;20998;-74
2023/07/10 05:04:28;;;;;;;4.43;2.40;;;26.20;63.90;;;;;;4973697;28;20998;-74
2023/07/10 05:06:58;;;;;;;3.47;2.50;;;25.90;64.80;;;;;;4974692;28;20505;-74
2023/07/10 05:09:25;;;;;;;4.33;2.07;;;25.70;65.80;;;;;;4974064;28;20470;-77
2023/07/10 05:11:52;;;;;;;3.80;2.73;;;25.90;65.20;;;;;;4974023;28;20525;-76
2023/07/10 05:14:19;;;;;;;3.63;2.77;;;26.10;64.50;;;;;;4974246;28;20452;-76
2023/07/10 05:16:45;;;;;;;2.93;2.40;;;26.30;64.30;;;;;;4974196;28;20446;-75
2023/07/10 05:19:12;;;;;;;4.60;2.30;;;26.40;63.80;;;;;;4974153;28;20477;-76
2023/07/10 05:21:39;;;;;;;4.20;2.60;;;26.50;63.40;;;;;;4973976;28;20474;-76
2023/07/10 05:24:06;;;;;;;3.03;2.50;;;26.70;63.60;;;;;;4973625;28;20884;-76
2023/07/10 05:26:34;;;;;;;4.07;2.30;;;26.70;63.60;;;;;;4973786;28;20772;-76
2023/07/10 05:29:01;;;;;;;2.80;2.50;;;26.90;63.60;;;;;;4974211;28;20864;-75
2023/07/10 05:31:27;;;;;;;3.67;2.37;;;27.10;62.60;;;;;;4973553;28;20824;-76
2023/07/10 05:33:54;;;;;;;3.77;2.13;;;27.20;62.50;;;;;;4974445;28;20504;-76
2023/07/10 05:36:21;;;;;;;2.83;2.10;;;27.40;62.20;;;;;;4973668;28;20862;-76
2023/07/10 05:38:49;;;;;;;2.60;2.40;;;27.50;62.40;;;;;;4973861;28;20454;-76
2023/07/10 05:41:16;;;;;;;3.87;2.90;;;27.60;62.80;;;;;;4974033;28;20471;-76
2023/07/10 05:43:44;;;;;;;4.83;2.13;;;27.70;61.60;;;;;;4973906;28;20446;-75
2023/07/10 05:46:11;;;;;;;2.80;2.53;;;27.40;62.10;;;;;;4973710;28;20482;-75
2023/07/10 05:48:37;;;;;;;3.27;2.80;;;26.90;63.70;;;;;;4973628;28;20457;-76
2023/07/10 05:51:05;;;;;;;5.73;2.33;;;26.50;64.50;;;;;;4973654;28;20556;-75
2023/07/10 05:53:33;;;;;;;3.53;2.10;;;26.10;64.90;;;;;;4973747;28;20451;-76
2023/07/10 05:56:01;;;;;;;3.37;2.53;;;25.90;65.40;;;;;;4973613;28;20453;-76
2023/07/10 05:58:29;;;;;;;4.13;2.33;;;25.90;66.10;;;;;;4973610;28;20453;-77
2023/07/10 06:01:01;;;;;;;3.00;2.23;;;25.90;65.60;;;;;;4973495;28;20481;-76
2023/07/10 06:03:32;;;;;;;3.67;2.27;;;25.90;66.00;;;;;;4977085;28;20434;-76
2023/07/10 06:06:00;;;;;;;2.93;2.63;;;26.20;65.60;;;;;;4977002;28;21001;-76
2023/07/10 06:08:28;;;;;;;2.73;2.53;;;26.60;64.80;;;;;;4977256;28;20476;-77
2023/07/10 06:10:55;;;;;;;3.37;2.27;;;26.90;63.90;;;;;;4977055;28;20509;-77
2023/07/10 06:13:22;;;;;;;3.60;2.20;;;27.10;63.50;;;;;;4977347;28;20454;-77
2023/07/10 06:15:52;;;;;;;2.80;2.10;;;27.30;62.90;;;;;;4977275;28;20496;-77
2023/07/10 06:18:20;;;;;;;3.30;2.90;;;27.20;63.80;;;;;;4977171;28;20461;-77
2023/07/10 06:20:51;;;;;;;2.80;2.10;;;27.40;63.00;;;;;;4976641;28;20846;-77
2023/07/10 06:23:18;;;;;;;2.80;2.30;;;27.50;62.80;;;;;;4977016;28;20458;-77
2023/07/10 06:25:45;;;;;;;4.30;2.63;;;27.70;62.50;;;;;;4976874;28;20517;-77
2023/07/10 06:28:12;;;;;;;3.33;2.80;;;28.00;62.00;;;;;;4976936;28;20449;-77
2023/07/10 06:30:39;;;;;;;3.80;2.20;;;28.40;61.60;;;;;;4976905;28;20450;-77
2023/07/10 06:33:05;;;;;;;3.30;2.00;;;28.80;60.60;;;;;;4976810;28;20824;-77
2023/07/10 06:35:34;;;;;;;3.30;2.30;;;29.00;60.00;;;;;;4976494;28;20932;-77
2023/07/10 06:38:00;;;;;;;3.37;2.10;;;29.10;59.50;;;;;;4976449;28;20970;-76
2023/07/10 06:40:27;;;;;;;3.10;2.17;;;29.30;59.70;;;;;;4976587;28;20451;-77
2023/07/10 06:42:54;;;;;;;3.33;2.10;;;29.40;58.90;;;;;;4976973;28;20451;-77
2023/07/10 06:45:20;;;;;;;3.50;2.70;;;29.60;58.80;;;;;;4976536;28;20478;-77
2023/07/10 06:47:47;;;;;;;2.63;2.10;;;29.60;58.90;;;;;;4976706;28;20450;-77
2023/07/10 06:50:15;;;;;;;3.90;2.60;;;29.80;58.40;;;;;;4976854;28;20458;-77
2023/07/10 06:52:44;;;;;;;3.50;2.30;;;30.00;57.90;;;;;;4976555;28;20524;-77
2023/07/10 06:55:15;;;;;;;3.07;2.30;;;30.20;58.20;;;;;;4976754;28;20450;-76
2023/07/10 06:57:42;;;;;;;2.73;2.23;;;30.30;57.20;;;;;;4976602;28;20431;-77
2023/07/10 07:00:12;;;;;;;3.50;2.13;;;30.20;57.00;;;;;;4976609;28;20537;-77
2023/07/10 07:02:39;;;;;;;2.40;1.97;;;30.20;57.20;;;;;;4976000;28;20541;-77
2023/07/10 07:05:07;;;;;;;2.77;2.07;;;30.10;57.50;;;;;;4976281;28;20493;-77
2023/07/10 07:07:36;;;;;;;3.40;2.10;;;30.20;58.10;;;;;;4976357;28;20457;-76
2023/07/10 07:10:05;;;;;;;2.53;2.00;;;30.40;57.60;;;;;;4976087;28;20970;-77
2023/07/10 07:12:32;;;;;;;3.53;2.07;;;30.60;56.90;;;;;;4975903;28;20915;-77
2023/07/10 07:14:59;;;;;;;3.67;2.00;;;30.50;57.00;;;;;;4975381;28;20469;-77
2023/07/10 07:17:25;;;;;;;2.60;1.97;;;30.40;58.10;;;;;;4976113;28;20521;-77
2023/07/10 07:19:52;;;;;;;2.30;2.10;;;30.50;57.50;;;;;;4976272;28;20449;-77
2023/07/10 07:22:19;;;;;;;3.20;2.10;;;30.40;57.30;;;;;;4975968;28;20473;-77
2023/07/10 07:24:45;;;;;;;2.97;2.37;;;30.30;57.50;;;;;;4976303;28;20497;-77
2023/07/10 07:27:14;;;;;;;2.40;2.10;;;30.20;57.90;;;;;;4976015;28;20451;-77
2023/07/10 07:29:40;;;;;;;3.10;2.30;;;29.90;58.40;;;;;;4976271;28;20844;-77
2023/07/10 07:32:09;;;;;;;4.67;2.40;;;29.70;58.50;;;;;;4975725;28;20477;-77
2023/07/10 07:34:36;;;;;;;4.03;2.20;;;29.70;59.20;;;;;;4975699;28;20453;-77
2023/07/10 07:37:05;;;;;;;2.80;2.10;;;29.90;59.00;;;;;;4975668;28;20509;-77
2023/07/10 07:39:32;;;;;;;3.40;2.17;;;30.20;59.10;;;;;;4975727;28;20505;-77
2023/07/10 07:41:59;;;;;;;9.20;3.30;;;30.40;59.30;;;;;;4975608;28;20470;-77
2023/07/10 07:44:26;;;;;;;3.27;2.17;;;30.60;58.40;;;;;;4975507;28;20501;-77
2023/07/10 07:46:53;;;;;;;4.30;2.40;;;30.60;57.70;;;;;;4975433;28;20533;-77
2023/07/10 07:49:21;;;;;;;4.97;2.40;;;30.70;57.70;;;;;;4975407;28;20453;-77
2023/07/10 07:51:48;;;;;;;3.00;2.13;;;30.80;57.30;;;;;;4975170;28;20525;-77
2023/07/10 07:54:16;;;;;;;3.20;2.53;;;31.00;56.70;;;;;;4975105;28;20942;-77
2023/07/10 07:56:42;;;;;;;4.73;2.57;;;31.10;56.60;;;;;;4975288;28;20493;-77
2023/07/10 07:59:10;;;;;;;2.93;2.00;;;31.10;56.80;;;;;;4975289;28;20513;-78
2023/07/10 08:01:38;;;;;;;2.60;2.00;;;31.30;56.70;;;;;;4975341;28;20482;-77
2023/07/10 08:04:05;;;;;;;3.53;2.10;;;31.40;56.30;;;;;;4975398;28;20451;-78
2023/07/10 08:06:34;;;;;;;2.57;1.77;;;31.50;56.60;;;;;;4975218;28;20510;-78
2023/07/10 08:09:02;;;;;;;2.90;2.20;;;31.60;56.50;;;;;;4979755;28;20999;-78
2023/07/10 08:11:29;;;;;;;2.60;1.90;;;31.80;56.00;;;;;;4985703;28;20541;-78
2023/07/10 08:13:56;;;;;;;3.90;2.00;;;31.90;55.70;;;;;;4981155;28;20513;-78
2023/07/10 08:16:22;;;;;;;2.90;2.40;;;32.00;55.20;;;;;;4980442;28;20439;-78
2023/07/10 08:18:50;;;;;;;4.10;2.20;;;31.80;56.60;;;;;;4983052;28;20450;-77
2023/07/10 08:21:18;;;;;;;3.50;2.20;;;31.60;56.00;;;;;;4975717;28;20469;-78
2023/07/10 08:23:45;;;;;;;4.13;2.13;;;31.60;55.90;;;;;;4975704;28;20873;-77
2023/07/10 08:26:12;;;;;;;3.77;2.33;;;31.50;56.20;;;;;;4975023;28;20486;-78
2023/07/10 08:28:39;;;;;;;2.40;2.10;;;31.60;55.80;;;;;;4975773;28;20454;-78
2023/07/10 08:31:06;;;;;;;2.40;2.10;;;31.60;56.40;;;;;;4975339;28;20517;-78
2023/07/10 08:33:32;;;;;;;5.10;2.63;;;31.50;55.60;;;;;;4974992;28;20446;-78
2023/07/10 08:36:02;;;;;;;3.13;1.90;;;31.50;56.10;;;;;;4975094;28;20501;-78
2023/07/10 08:38:29;;;;;;;2.50;2.30;;;31.60;55.50;;;;;;4974599;28;20450;-78
2023/07/10 08:41:00;;;;;;;2.77;2.37;;;31.40;55.40;;;;;;4974799;28;20533;-77
2023/07/10 08:43:30;;;;;;;3.47;2.20;;;31.50;55.90;;;;;;4974651;28;20441;-78
2023/07/10 08:46:03;;;;;;;3.63;1.93;;;31.50;55.40;;;;;;4975575;28;20477;-78
2023/07/10 08:48:34;;;;;;;4.10;1.93;;;31.60;56.50;;;;;;4975896;28;20450;-78
2023/07/10 08:51:12;;;;;;;2.70;2.50;;;31.70;56.50;;;;;;4975398;28;20909;-78
2023/07/10 08:53:44;;;;;;;3.83;2.40;;;31.90;55.90;;;;;;4975403;28;20431;-79
2023/07/10 08:56:22;;;;;;;2.60;2.00;;;32.20;54.90;;;;;;4975373;28;20459;-79
2023/07/10 08:58:49;;;;;;;2.97;2.30;;;32.30;55.50;;;;;;4974966;28;20431;-79
2023/07/10 09:01:23;;;;;;;2.77;2.20;;;32.50;55.10;;;;;;4974509;28;21033;-78
2023/07/10 09:03:51;;;;;;;2.50;1.90;;;32.20;54.40;;;;;;4974629;28;20525;-79
2023/07/10 09:06:22;;;;;;;4.47;2.00;;;32.20;54.90;;;;;;4974931;28;20932;-78
2023/07/10 09:08:52;;;;;;;2.43;2.13;;;32.20;54.90;;;;;;4974227;28;20511;-77
2023/07/10 09:11:19;;;;;;;3.50;2.50;;;31.90;55.00;;;;;;4974829;28;20502;-78
2023/07/10 09:13:51;;;;;;;3.90;2.13;;;31.60;55.40;;;;;;4974134;28;20446;-77
2023/07/10 09:16:20;;;;;;;5.27;2.27;;;31.40;56.00;;;;;;4974647;28;20435;-78
2023/07/10 09:18:52;;;;;;;2.90;2.40;;;31.40;56.10;;;;;;4974540;28;20457;-78
2023/07/10 09:21:22;;;;;;;3.80;2.23;;;31.50;56.20;;;;;;4974686;28;20881;-78
2023/07/10 09:23:50;;;;;;;2.50;1.90;;;31.70;55.70;;;;;;4974508;28;20867;-77
2023/07/10 09:26:20;;;;;;;3.97;2.40;;;31.90;56.00;;;;;;4974125;28;20482;-77
2023/07/10 09:29:15;;;;;;;2.83;2.17;;;32.00;54.70;;;;;;4974593;28;20449;-78
2023/07/10 09:31:50;;;;;;;3.80;3.07;;;31.60;56.60;;;;;;4974521;28;20557;-76
2023/07/10 09:34:21;;;;;;;3.00;2.37;;;31.70;55.80;;;;;;4974368;28;20426;-77
2023/07/10 09:36:51;;;;;;;2.87;2.20;;;31.80;57.40;;;;;;4975647;28;20823;-78
2023/07/10 09:39:19;;;;;;;2.40;2.00;;;31.80;57.50;;;;;;4978324;28;20534;-77
2023/07/10 09:41:47;;;;;;;2.53;2.20;;;32.00;57.60;;;;;;4978306;28;20466;-77
2023/07/10 09:44:17;;;;;;;2.50;2.03;;;32.10;57.10;;;;;;4978118;28;20454;-77
2023/07/10 09:46:44;;;;;;;2.50;2.23;;;32.10;57.00;;;;;;4977806;28;20541;-77
2023/07/10 09:49:14;;;;;;;3.23;2.70;;;32.00;57.60;;;;;;4978171;28;20450;-77
2023/07/10 09:51:58;;;;;;;2.40;2.20;;;32.10;57.80;;;;;;4977729;28;20473;-77
2023/07/10 09:54:25;;;;;;;2.57;2.30;;;32.10;57.70;;;;;;4978334;28;20435;-78
2023/07/10 09:56:54;;;;;;;2.77;2.20;;;32.20;57.50;;;;;;4978293;28;20446;-77
2023/07/10 09:59:22;;;;;;;2.63;2.40;;;32.20;58.10;;;;;;4977576;28;20935;-77
2023/07/10 10:01:51;;;;;;;2.63;2.23;;;32.40;57.00;;;;;;4977538;28;20496;-76
2023/07/10 10:04:21;;;;;;;2.50;2.30;;;32.40;57.10;;;;;;4977826;28;20453;-77
2023/07/10 10:06:57;;;;;;;3.13;2.37;;;32.30;57.10;;;;;;4977784;28;20572;-77
2023/07/10 10:09:27;;;;;;;3.30;2.30;;;32.20;57.80;;;;;;4977808;28;20438;-77
2023/07/10 10:12:01;;;;;;;4.93;2.23;;;32.10;57.70;;;;;;4977693;28;20473;-77
2023/07/10 10:14:40;;;;;;;2.70;2.33;;;32.10;57.60;;;;;;4979048;28;20563;-77
2023/07/10 10:17:10;;;;;;;3.60;2.67;;;32.30;57.20;;;;;;4977576;28;20903;-77
2023/07/10 10:19:42;;;;;;;2.53;2.00;;;32.50;56.50;;;;;;4977187;28;20800;-77
2023/07/10 10:22:11;;;;;;;4.67;2.20;;;32.60;56.20;;;;;;4977309;28;20529;-77
2023/07/10 10:24:38;;;;;;;3.40;2.30;;;32.60;56.90;;;;;;4977305;28;20504;-77
2023/07/10 10:27:20;;;;;;;2.60;2.20;;;32.50;57.10;;;;;;4977211;28;20487;-77
2023/07/10 10:30:16;;;;;;;3.50;2.23;;;32.40;57.00;;;;;;4977286;28;20444;-77
2023/07/10 10:32:50;;;;;;;4.20;2.50;;;32.50;56.40;;;;;;4976814;28;20889;-77
2023/07/10 10:35:27;;;;;;;3.47;2.50;;;32.50;56.00;;;;;;4977095;28;21008;-77
2023/07/10 10:38:13;;;;;;;4.20;2.37;;;32.50;56.30;;;;;;4977152;28;20474;-77
2023/07/10 10:40:46;;;;;;;3.50;2.53;;;32.50;56.70;;;;;;4977035;28;20513;-78
2023/07/10 10:43:42;;;;;;;2.77;2.57;;;32.50;56.60;;;;;;4977179;28;20427;-78
2023/07/10 10:46:21;;;;;;;2.57;2.33;;;32.60;56.90;;;;;;4977442;28;20478;-78
2023/07/10 10:48:56;;;;;;;2.73;2.50;;;32.60;56.20;;;;;;4976289;28;20493;-77
2023/07/10 10:51:29;;;;;;;2.80;2.27;;;32.70;56.20;;;;;;4976938;28;20466;-77
2023/07/10 10:54:11;;;;;;;3.20;2.30;;;32.70;57.60;;;;;;4977059;28;20434;-77
2023/07/10 10:56:46;;;;;;;2.50;2.30;;;33.00;56.20;;;;;;4976907;28;20518;-77
2023/07/10 10:59:27;;;;;;;4.20;2.30;;;33.20;55.50;;;;;;4976728;28;20910;-77
2023/07/10 11:02:00;;;;;;;2.63;2.33;;;33.40;55.30;;;;;;4976745;28;20521;-78
2023/07/10 11:04:34;;;;;;;2.97;2.40;;;33.40;53.70;;;;;;4976772;28;20449;-78
2023/07/10 11:07:05;;;;;;;2.90;2.60;;;33.20;54.90;;;;;;4976566;28;20470;-77
2023/07/10 11:09:37;;;;;;;2.70;2.30;;;33.20;54.80;;;;;;4976227;28;20970;-77
2023/07/10 11:12:05;;;;;;;5.13;2.37;;;33.20;54.90;;;;;;4976497;28;20482;-77
2023/07/10 11:14:32;;;;;;;3.80;2.97;;;33.40;55.00;;;;;;4976128;28;20874;-77
2023/07/10 11:16:59;;;;;;;3.03;2.07;;;33.30;54.40;;;;;;4976507;28;20446;-78
2023/07/10 11:19:29;;;;;;;2.30;2.00;;;33.30;54.00;;;;;;4976096;28;20939;-76
2023/07/10 11:21:56;;;;;;;4.33;2.30;;;33.50;53.80;;;;;;4976398;28;20475;-77
2023/07/10 11:24:34;;;;;;;3.10;2.03;;;33.50;54.30;;;;;;4976280;28;20450;-77
2023/07/10 11:27:10;;;;;;;3.27;2.60;;;33.70;53.40;;;;;;4976263;28;20481;-77
2023/07/10 11:29:41;;;;;;;2.63;2.13;;;34.00;53.90;;;;;;4977599;28;20434;-78
2023/07/10 11:32:16;;;;;;;1.93;1.70;;;34.00;52.90;;;;;;4976309;28;20501;-77
2023/07/10 11:35:18;;;;;;;3.50;2.60;;;34.20;51.70;;;;;;4976191;28;20516;-77
2023/07/10 11:38:16;;;;;;;4.13;2.53;;;34.20;51.60;;;;;;4976052;28;20450;-78
2023/07/10 11:41:09;;;;;;;2.93;2.20;;;34.40;51.10;;;;;;4975970;28;20485;-78
2023/07/10 11:44:12;;;;;;;3.63;2.60;;;34.30;50.60;;;;;;4976056;28;20510;-77
2023/07/10 11:46:59;;;;;;;4.30;2.30;;;34.40;50.20;;;;;;4975821;28;20482;-77
2023/07/10 11:49:27;;;;;;;2.33;2.00;;;34.50;48.60;;;;;;4976181;28;20493;-77
2023/07/10 11:52:27;;;;;;;2.60;1.90;;;34.50;48.50;;;;;;4975478;28;20986;-77
2023/07/10 11:55:09;;;;;;;3.00;2.03;;;34.50;43.50;;;;;;4975744;28;20442;-77
2023/07/10 11:57:38;;;;;;;2.40;2.00;;;34.40;40.30;;;;;;4975693;28;20442;-77
2023/07/10 12:00:20;;;;;;;2.30;2.07;;;34.40;40.80;;;;;;4975377;28;20867;-77
2023/07/10 12:02:48;;;;;;;2.20;1.70;;;34.30;41.40;;;;;;4975151;28;20497;-78
2023/07/10 12:05:17;;;;;;;3.63;2.50;;;34.40;41.90;;;;;;4975627;28;20540;-77
2023/07/10 12:07:51;;;;;;;2.70;2.50;;;34.40;37.90;;;;;;4975480;28;20478;-78
2023/07/10 12:10:18;;;;;;;2.40;2.10;;;34.40;38.50;;;;;;4975475;28;20445;-78
2023/07/10 12:12:46;;;;;;;2.63;2.43;;;34.00;38.00;;;;;;4975338;28;20478;-77
2023/07/10 12:15:13;;;;;;;2.50;2.30;;;34.10;38.30;;;;;;4975239;28;20462;-78
2023/07/10 12:17:41;;;;;;;3.23;2.40;;;34.00;39.70;;;;;;4975197;28;20462;-77
2023/07/10 12:20:30;;;;;;;2.53;2.17;;;34.00;39.10;;;;;;4977825;28;20473;-78
2023/07/10 12:23:01;;;;;;;2.33;1.70;;;34.10;41.20;;;;;;4975583;28;20426;-78
2023/07/10 12:25:28;;;;;;;2.43;2.13;;;34.10;39.80;;;;;;4975220;28;20513;-77
2023/07/10 12:28:01;;;;;;;2.50;2.30;;;34.10;40.40;;;;;;4974962;28;20508;-76
2023/07/10 12:30:28;;;;;;;2.67;2.30;;;34.00;39.90;;;;;;4975205;28;20427;-77
2023/07/10 12:32:57;;;;;;;2.43;2.17;;;34.00;40.60;;;;;;4975595;28;20981;-77
2023/07/10 12:35:29;;;;;;;3.03;2.00;;;34.00;40.60;;;;;;4975451;28;20454;-78
2023/07/10 12:37:58;;;;;;;4.03;1.83;;;34.20;42.10;;;;;;4975398;28;20469;-78
2023/07/10 12:40:26;;;;;;;2.10;1.70;;;34.30;40.80;;;;;;4975499;28;20493;-78
2023/07/10 12:42:53;;;;;;;3.13;2.00;;;34.50;40.10;;;;;;4975181;28;20962;-77
2023/07/10 12:45:29;;;;;;;2.40;1.70;;;34.50;40.90;;;;;;4974950;28;20957;-78
2023/07/10 12:48:00;;;;;;;3.70;2.30;;;34.60;40.40;;;;;;4975180;28;20545;-78
2023/07/10 12:50:42;;;;;;;3.30;1.60;;;34.70;40.30;;;;;;4975062;28;20438;-78
2023/07/10 12:53:17;;;;;;;2.40;1.67;;;34.90;40.20;;;;;;4975068;28;20431;-78
2023/07/10 12:55:44;;;;;;;2.73;2.40;;;35.10;40.00;;;;;;4974725;28;20521;-77
2023/07/10 12:58:14;;;;;;;2.30;2.10;;;35.30;39.90;;;;;;4974724;28;20496;-78
2023/07/10 13:00:47;;;;;;;2.80;2.03;;;35.40;40.20;;;;;;4974473;28;20545;-78
2023/07/10 13:03:25;;;;;;;2.00;1.47;;;35.30;39.50;;;;;;4975061;28;20422;-77
2023/07/10 13:05:54;;;;;;;3.00;2.00;;;35.10;40.30;;;;;;4974676;28;20488;-77
2023/07/10 13:08:21;;;;;;;2.73;1.80;;;35.20;40.10;;;;;;4974692;28;20486;-78
2023/07/10 13:10:52;;;;;;;2.23;1.60;;;35.20;40.80;;;;;;4974349;28;20469;-78
2023/07/10 13:13:21;;;;;;;2.20;1.80;;;35.20;41.60;;;;;;4974487;28;20501;-78
2023/07/10 13:15:49;;;;;;;2.50;2.03;;;35.30;40.60;;;;;;4974574;28;20504;-78
2023/07/10 13:18:21;;;;;;;3.03;1.73;;;35.30;40.60;;;;;;4976622;28;20493;-78
2023/07/10 13:20:48;;;;;;;2.00;1.73;;;35.60;40.80;;;;;;4974780;28;20537;-75
2023/07/10 13:23:15;;;;;;;2.00;1.60;;;35.60;40.10;;;;;;4974642;28;20508;-78
2023/07/10 13:25:42;;;;;;;2.23;1.90;;;35.60;41.10;;;;;;4974735;28;20457;-78
2023/07/10 13:28:21;;;;;;;2.63;2.10;;;35.40;40.80;;;;;;4974482;28;20481;-78
2023/07/10 13:30:49;;;;;;;3.33;1.83;;;35.10;40.90;;;;;;4974325;28;20466;-78
2023/07/10 13:33:19;;;;;;;2.10;1.67;;;34.90;42.50;;;;;;4974453;28;20457;-78
2023/07/10 13:35:48;;;;;;;4.37;2.00;;;34.90;42.30;;;;;;4974377;28;20508;-79
2023/07/10 13:38:15;;;;;;;1.80;1.60;;;34.90;41.90;;;;;;4974388;28;20638;-77
2023/07/10 13:40:42;;;;;;;2.40;2.00;;;34.90;42.10;;;;;;4973934;28;20560;-77
2023/07/10 13:43:15;;;;;;;2.67;2.03;;;34.90;42.20;;;;;;4973922;28;20811;-77
2023/07/10 13:45:42;;;;;;;3.37;2.53;;;35.10;43.60;;;;;;4974248;28;20452;-78
2023/07/10 13:48:14;;;;;;;2.43;1.80;;;35.30;43.70;;;;;;4974089;28;20486;-77
2023/07/10 13:50:43;;;;;;;2.97;2.00;;;35.50;42.50;;;;;;4974111;28;20449;-78
2023/07/10 13:53:12;;;;;;;2.40;2.07;;;35.50;41.50;;;;;;4974145;28;20508;-76
2023/07/10 13:55:40;;;;;;;2.20;1.80;;;35.60;42.70;;;;;;4974056;28;20942;-77
2023/07/10 13:58:16;;;;;;;2.47;1.97;;;35.70;41.30;;;;;;4974467;28;20454;-77
2023/07/10 14:00:43;;;;;;;2.40;1.97;;;35.60;41.10;;;;;;4974063;28;20472;-77
2023/07/10 14:03:10;;;;;;;2.60;2.00;;;35.30;42.10;;;;;;4974209;28;20438;-76
2023/07/10 14:05:39;;;;;;;3.53;2.10;;;35.20;40.60;;;;;;4974260;28;20508;-77
2023/07/10 14:08:18;;;;;;;2.00;1.67;;;35.30;40.70;;;;;;4973882;28;20497;-77
2023/07/10 14:10:45;;;;;;;2.60;1.90;;;35.50;41.60;;;;;;4973929;28;20472;-77
2023/07/10 14:13:13;;;;;;;3.20;1.87;;;35.60;40.50;;;;;;4973939;28;20449;-77
2023/07/10 14:15:41;;;;;;;3.37;2.00;;;35.50;40.60;;;;;;4973891;28;20454;-77
2023/07/10 14:18:14;;;;;;;3.17;2.00;;;35.30;40.10;;;;;;4973490;28;20865;-76
2023/07/10 14:20:43;;;;;;;2.30;1.87;;;35.20;40.80;;;;;;4973966;28;20521;-77
2023/07/10 14:23:14;;;;;;;2.13;1.87;;;35.20;41.20;;;;;;4975588;28;20541;-77
2023/07/10 14:25:41;;;;;;;2.17;1.90;;;34.90;40.80;;;;;;4977555;28;20516;-76
2023/07/10 14:28:12;;;;;;;2.03;1.63;;;34.90;41.50;;;;;;4977325;28;20485;-76
2023/07/10 14:30:39;;;;;;;4.53;2.27;;;34.90;41.70;;;;;;4977383;28;20507;-78
2023/07/10 14:33:05;;;;;;;2.37;2.10;;;34.80;42.00;;;;;;4976996;28;20454;-76
2023/07/10 14:35:32;;;;;;;2.40;1.87;;;34.80;41.90;;;;;;4977221;28;20492;-76
2023/07/10 14:38:00;;;;;;;2.60;1.97;;;34.80;41.70;;;;;;4977168;28;20449;-76
2023/07/10 14:40:27;;;;;;;2.57;2.00;;;34.90;41.70;;;;;;4977714;28;20454;-77
2023/07/10 14:42:53;;;;;;;2.70;2.00;;;34.70;41.90;;;;;;4977304;28;20454;-76
2023/07/10 14:45:20;;;;;;;5.93;2.40;;;35.00;42.10;;;;;;4976973;28;20454;-76
2023/07/10 14:47:47;;;;;;;2.20;2.00;;;35.00;41.40;;;;;;4976828;28;20488;-76
2023/07/10 14:50:14;;;;;;;2.20;1.73;;;35.00;41.10;;;;;;4976906;28;20457;-76
2023/07/10 14:52:44;;;;;;;2.60;1.83;;;34.80;41.60;;;;;;4977086;28;20469;-76
2023/07/10 14:55:16;;;;;;;2.93;2.20;;;34.80;42.10;;;;;;4976893;28;20450;-77
2023/07/10 14:57:43;;;;;;;2.50;2.00;;;34.70;42.10;;;;;;4976901;28;20419;-76
2023/07/10 15:00:19;;;;;;;3.50;2.20;;;34.60;41.80;;;;;;4976918;28;20475;-76
2023/07/10 15:02:46;;;;;;;2.20;2.00;;;34.50;41.90;;;;;;4976316;28;20520;-75
2023/07/10 15:05:13;;;;;;;2.30;2.00;;;34.70;41.30;;;;;;4976639;28;20450;-76
2023/07/10 15:07:40;;;;;;;2.87;1.67;;;34.80;41.50;;;;;;4976533;28;20482;-76
2023/07/10 15:10:17;;;;;;;2.10;1.80;;;34.80;41.80;;;;;;4976497;28;20450;-77
2023/07/10 15:12:44;;;;;;;2.20;1.70;;;34.90;41.90;;;;;;4976472;28;20524;-77
2023/07/10 15:15:14;;;;;;;2.10;1.90;;;35.10;41.50;;;;;;4976474;28;20457;-77
2023/07/10 15:17:42;;;;;;;2.03;1.83;;;35.00;40.90;;;;;;4976620;28;20454;-76
2023/07/10 15:20:14;;;;;;;2.17;1.97;;;35.10;40.90;;;;;;4977323;28;20858;-76
2023/07/10 15:22:41;;;;;;;2.50;2.30;;;35.00;40.70;;;;;;4976615;28;20524;-78
2023/07/10 15:25:17;;;;;;;2.47;2.27;;;34.90;41.60;;;;;;4976194;28;20462;-76
2023/07/10 15:27:44;;;;;;;2.83;2.30;;;35.10;41.40;;;;;;4976234;28;20841;-77
2023/07/10 15:30:12;;;;;;;2.23;1.90;;;35.10;42.30;;;;;;4976197;28;20508;-76
2023/07/10 15:32:42;;;;;;;2.33;1.80;;;35.10;43.10;;;;;;4976065;28;20529;-76
2023/07/10 15:35:13;;;;;;;2.27;2.00;;;35.20;43.10;;;;;;4975442;28;20482;-78
2023/07/10 15:37:40;;;;;;;2.40;2.10;;;35.20;42.80;;;;;;4976080;28;20441;-78
2023/07/10 15:40:20;;;;;;;2.83;2.10;;;35.10;43.20;;;;;;4975949;28;20512;-77
2023/07/10 15:42:49;;;;;;;3.00;2.60;;;34.90;43.80;;;;;;4975884;28;20556;-76
2023/07/10 15:45:18;;;;;;;2.40;2.13;;;34.90;44.30;;;;;;4975870;28;20446;-77
2023/07/10 15:47:48;;;;;;;2.23;1.80;;;34.80;44.30;;;;;;4975753;28;20532;-77
2023/07/10 15:50:17;;;;;;;2.37;1.80;;;34.70;44.40;;;;;;4976060;28;20423;-76
2023/07/10 15:52:49;;;;;;;5.80;2.10;;;34.60;44.60;;;;;;4975311;28;20882;-77
2023/07/10 15:55:20;;;;;;;2.80;2.00;;;34.50;45.20;;;;;;4975428;28;20441;-76
2023/07/10 15:57:48;;;;;;;2.17;1.87;;;34.40;45.40;;;;;;4975658;28;20434;-77
2023/07/10 16:00:16;;;;;;;2.00;1.70;;;34.40;45.90;;;;;;4975525;28;20457;-76
2023/07/10 16:02:45;;;;;;;2.17;1.93;;;34.30;45.70;;;;;;4975320;28;20486;-77
2023/07/10 16:05:20;;;;;;;2.00;1.60;;;34.50;45.30;;;;;;4975461;28;20458;-76
2023/07/10 16:07:46;;;;;;;2.30;2.10;;;34.40;45.10;;;;;;4975427;28;20838;-77
2023/07/10 16:10:14;;;;;;;2.83;2.37;;;34.40;45.40;;;;;;4975390;28;20446;-77
2023/07/10 16:12:43;;;;;;;2.90;1.93;;;34.30;44.90;;;;;;4975319;28;20478;-77
2023/07/10 16:15:15;;;;;;;2.13;1.93;;;34.10;45.30;;;;;;4975949;28;20450;-76
2023/07/10 16:17:41;;;;;;;2.67;1.90;;;34.10;45.40;;;;;;4975606;28;20454;-77
2023/07/10 16:20:14;;;;;;;2.87;2.10;;;34.10;45.10;;;;;;4975423;28;20489;-77
2023/07/10 16:22:41;;;;;;;2.33;2.00;;;34.00;46.10;;;;;;4975127;28;20876;-77
2023/07/10 16:25:13;;;;;;;3.00;2.17;;;33.90;45.90;;;;;;4975175;28;20865;-77
2023/07/10 16:27:41;;;;;;;2.77;2.10;;;33.80;46.20;;;;;;4975045;28;20491;-76
2023/07/10 16:30:14;;;;;;;2.70;2.07;;;33.70;46.10;;;;;;4974992;28;20446;-76
2023/07/10 16:32:41;;;;;;;2.77;2.00;;;33.70;46.00;;;;;;4974970;28;20476;-78
2023/07/10 16:35:15;;;;;;;2.70;1.93;;;33.70;46.00;;;;;;4974592;28;20914;-77
2023/07/10 16:37:41;;;;;;;3.10;2.27;;;33.70;46.80;;;;;;4975089;28;20526;-77
2023/07/10 16:40:14;;;;;;;2.80;2.23;;;33.60;46.40;;;;;;4974586;28;20808;-77
2023/07/10 16:42:42;;;;;;;2.60;2.30;;;33.60;46.40;;;;;;4974532;28;21017;-77
2023/07/10 16:45:17;;;;;;;2.87;2.67;;;33.70;46.90;;;;;;4974824;28;20822;-77
2023/07/10 16:47:44;;;;;;;2.93;1.83;;;33.60;46.90;;;;;;4974051;28;20500;-77
2023/07/10 16:50:15;;;;;;;3.03;2.40;;;33.50;46.60;;;;;;4974863;28;20536;-77
2023/07/10 16:52:42;;;;;;;2.40;2.10;;;33.40;46.90;;;;;;4974695;28;20469;-77
2023/07/10 16:55:15;;;;;;;2.57;2.03;;;33.40;47.20;;;;;;4974458;28;20903;-77
2023/07/10 16:57:44;;;;;;;2.83;2.07;;;33.30;47.20;;;;;;4974729;28;20521;-77
2023/07/10 17:00:13;;;;;;;2.20;1.97;;;33.20;47.20;;;;;;4974812;28;20446;-77
2023/07/10 17:02:40;;;;;;;2.50;2.07;;;33.00;47.30;;;;;;4974340;28;20529;-77